createdAt,value
2023-02-18T00:01:18.878Z,101398.31
2023-02-18T00:03:45.974Z,101395.66
2023-02-18T00:06:16.571Z,101416.00
2023-02-18T00:08:44.433Z,101399.81
2023-02-18T00:11:11.750Z,101407.06
2023-02-18T00:13:38.265Z,101379.41
2023-02-18T00:16:08.220Z,101382.25
2023-02-18T00:18:34.998Z,101392.63
2023-02-18T00:21:04.512Z,101402.41
2023-02-18T00:23:31.041Z,101355.84
2023-02-18T00:26:04.673Z,101404.50
2023-02-18T00:28:31.776Z,101357.66
2023-02-18T00:30:58.327Z,101393.88
2023-02-18T00:33:24.994Z,101399.50
2023-02-18T00:35:51.464Z,101394.84
2023-02-18T00:38:17.923Z,101394.53
2023-02-18T00:40:44.412Z,101383.47
2023-02-18T00:43:11.093Z,101385.47
2023-02-18T00:45:37.562Z,101350.72
2023-02-18T00:48:04.211Z,101337.78
2023-02-18T00:50:30.679Z,101351.56
2023-02-18T00:52:57.123Z,101368.88
2023-02-18T00:55:23.600Z,101373.81
2023-02-18T00:57:50.039Z,101364.91
2023-02-18T01:00:16.908Z,101337.88
2023-02-18T01:02:43.857Z,101367.81
2023-02-18T01:05:10.444Z,101362.53
2023-02-18T01:07:37.233Z,101362.25
2023-02-18T01:10:04.500Z,101356.63
2023-02-18T01:12:31.309Z,101360.91
2023-02-18T01:14:57.786Z,101353.47
2023-02-18T01:17:24.230Z,101355.19
2023-02-18T01:19:50.984Z,101360.78
2023-02-18T01:22:17.898Z,101370.56
2023-02-18T01:24:46.262Z,101359.78
2023-02-18T01:27:13.248Z,101365.84
2023-02-18T01:29:39.769Z,101353.72
2023-02-18T01:32:06.282Z,101358.69
2023-02-18T01:34:32.872Z,101354.25
2023-02-18T01:36:59.475Z,101359.22
2023-02-18T01:39:26.028Z,101351.56
2023-02-18T01:41:52.531Z,101359.00
2023-02-18T01:44:28.765Z,101350.25
2023-02-18T01:46:55.571Z,101348.78
2023-02-18T01:49:36.047Z,101305.47
2023-02-18T01:52:34.122Z,101345.44
2023-02-18T01:55:00.607Z,101288.69
2023-02-18T01:57:31.281Z,101344.03
2023-02-18T02:00:13.267Z,101333.31
2023-02-18T02:02:44.765Z,101310.66
2023-02-18T02:05:12.677Z,101332.75
2023-02-18T02:07:41.317Z,101335.50
2023-02-18T02:10:08.462Z,101330.50
2023-02-18T02:13:12.431Z,101331.91
2023-02-18T02:15:49.862Z,101340.97
2023-02-18T02:18:27.824Z,101332.25
2023-02-18T02:21:31.982Z,101326.31
2023-02-18T02:24:49.361Z,101329.94
2023-02-18T02:27:25.470Z,101278.47
2023-02-18T02:29:59.920Z,101314.81
2023-02-18T02:32:45.017Z,101317.56
2023-02-18T02:35:26.320Z,101301.13
2023-02-18T02:38:09.118Z,101284.22
2023-02-18T02:40:45.082Z,101302.97
2023-02-18T02:43:23.771Z,101289.53
2023-02-18T02:45:52.862Z,101296.25
2023-02-18T02:48:44.183Z,101299.06
2023-02-18T02:51:29.591Z,101295.25
2023-02-18T02:54:27.941Z,101291.75
2023-02-18T02:57:29.364Z,101276.78
2023-02-18T03:00:00.924Z,101276.34
2023-02-18T03:02:58.884Z,101281.69
2023-02-18T03:05:48.812Z,101272.94
2023-02-18T03:08:27.607Z,101270.28
2023-02-18T03:11:07.457Z,101264.38
2023-02-18T03:13:54.835Z,101266.03
2023-02-18T03:16:47.290Z,101249.69
2023-02-18T03:19:28.423Z,101251.28
2023-02-18T03:22:13.928Z,101234.28
2023-02-18T03:24:46.781Z,101247.63
2023-02-18T03:27:17.250Z,101225.88
2023-02-18T03:29:45.731Z,101224.19
2023-02-18T03:32:14.839Z,101198.09
2023-02-18T03:34:44.582Z,101188.34
2023-02-18T03:37:12.475Z,101216.47
2023-02-18T03:39:41.885Z,101206.97
2023-02-18T03:42:08.496Z,101215.25
2023-02-18T03:44:34.988Z,101211.50
2023-02-18T03:47:01.793Z,101195.09
2023-02-18T03:49:28.295Z,101207.22
2023-02-18T03:51:55.065Z,101202.84
2023-02-18T03:54:21.640Z,101198.25
2023-02-18T03:56:48.107Z,101193.50
2023-02-18T03:59:14.631Z,101202.81
2023-02-18T04:01:41.137Z,101190.22
2023-02-18T04:04:07.801Z,101181.56
2023-02-18T04:06:34.439Z,101176.81
2023-02-18T04:09:01.034Z,101186.78
2023-02-18T04:11:27.519Z,101176.25
2023-02-18T04:13:53.962Z,101181.81
2023-02-18T04:16:20.536Z,101170.22
2023-02-18T04:18:47.042Z,101174.59
2023-02-18T04:21:13.650Z,101170.41
2023-02-18T04:23:40.149Z,101158.66
2023-02-18T04:26:07.030Z,101155.59
2023-02-18T04:28:33.826Z,101143.50
2023-02-18T04:31:00.348Z,101156.28
2023-02-18T04:33:27.060Z,101150.34
2023-02-18T04:35:53.950Z,101142.47
2023-02-18T04:38:20.468Z,101143.31
2023-02-18T04:40:47.251Z,101112.34
2023-02-18T04:43:13.888Z,101128.81
2023-02-18T04:45:40.361Z,101095.44
2023-02-18T04:48:06.921Z,101137.94
2023-02-18T04:50:35.258Z,101112.13
2023-02-18T04:53:02.077Z,101126.03
2023-02-18T04:55:28.622Z,101125.41
2023-02-18T04:57:55.110Z,101115.91
2023-02-18T05:00:21.868Z,101120.03
2023-02-18T05:02:48.426Z,101108.69
2023-02-18T05:05:15.414Z,101093.09
2023-02-18T05:07:42.658Z,101096.81
2023-02-18T05:10:11.362Z,101109.59
2023-02-18T05:12:37.891Z,101102.78
2023-02-18T05:15:04.977Z,101110.09
2023-02-18T05:17:31.778Z,101046.81
2023-02-18T05:19:58.220Z,101088.09
2023-02-18T05:22:24.846Z,101096.94
2023-02-18T05:24:51.339Z,101063.25
2023-02-18T05:27:17.790Z,101088.75
2023-02-18T05:29:44.585Z,101066.97
2023-02-18T05:32:11.134Z,101061.00
2023-02-18T05:34:37.678Z,101069.84
2023-02-18T05:37:04.155Z,101075.78
2023-02-18T05:39:30.618Z,101071.69
2023-02-18T05:41:57.055Z,101053.16
2023-02-18T05:44:33.428Z,100982.13
2023-02-18T05:47:06.083Z,101029.19
2023-02-18T05:49:33.534Z,101024.78
2023-02-18T05:52:00.135Z,101011.47
2023-02-18T05:54:27.210Z,101028.97
2023-02-18T05:56:54.207Z,101019.22
2023-02-18T05:59:21.159Z,101024.06
2023-02-18T06:01:47.726Z,101025.22
2023-02-18T06:04:15.457Z,100992.88
2023-02-18T06:06:42.733Z,101009.53
2023-02-18T06:09:09.564Z,101006.72
2023-02-18T06:11:36.363Z,100992.09
2023-02-18T06:14:03.647Z,101017.84
2023-02-18T06:16:30.593Z,100998.19
2023-02-18T06:18:57.339Z,100987.88
2023-02-18T06:21:24.053Z,101001.63
2023-02-18T06:23:50.963Z,100991.66
2023-02-18T06:26:17.495Z,100980.91
2023-02-18T06:28:43.961Z,100988.56
2023-02-18T06:31:10.951Z,100958.53
2023-02-18T06:33:37.880Z,100984.94
2023-02-18T06:36:11.665Z,100989.38
2023-02-18T06:38:40.199Z,100992.75
2023-02-18T06:41:07.045Z,100978.97
2023-02-18T06:43:33.985Z,100993.59
2023-02-18T06:46:00.515Z,100998.06
2023-02-18T06:48:27.173Z,101003.09
2023-02-18T06:50:53.674Z,100992.09
2023-02-18T06:53:20.193Z,100999.25
2023-02-18T06:55:47.263Z,101005.81
2023-02-18T06:58:14.475Z,100998.91
2023-02-18T07:00:41.248Z,100995.88
2023-02-18T07:03:08.883Z,101013.69
2023-02-18T07:05:35.381Z,100990.44
2023-02-18T07:08:01.969Z,100939.56
2023-02-18T07:10:28.660Z,100985.81
2023-02-18T07:12:55.471Z,100975.47
2023-02-18T07:15:24.342Z,100988.19
2023-02-18T07:17:51.935Z,100980.06
2023-02-18T07:20:20.349Z,100972.72
2023-02-18T07:22:47.449Z,100978.41
2023-02-18T07:25:14.284Z,100986.41
2023-02-18T07:27:40.810Z,100978.41
2023-02-18T07:30:08.007Z,100988.94
2023-02-18T07:32:34.964Z,100984.88
2023-02-18T07:35:01.555Z,100990.28
2023-02-18T07:37:28.061Z,100994.63
2023-02-18T07:39:54.583Z,101003.66
2023-02-18T07:42:21.116Z,100873.16
2023-02-18T07:44:47.610Z,100995.69
2023-02-18T07:47:15.690Z,101000.22
2023-02-18T07:49:42.360Z,101006.88
2023-02-18T07:52:09.012Z,101009.69
2023-02-18T07:54:35.560Z,101007.63
2023-02-18T07:57:02.055Z,100997.09
2023-02-18T07:59:28.544Z,101010.00
2023-02-18T08:01:55.109Z,101000.56
2023-02-18T08:04:22.075Z,101003.13
2023-02-18T08:06:52.249Z,101009.47
2023-02-18T08:09:19.176Z,101021.06
2023-02-18T08:11:45.699Z,101020.09
2023-02-18T08:14:12.465Z,101017.72
2023-02-18T08:16:39.045Z,101033.75
2023-02-18T08:19:05.638Z,101027.19
2023-02-18T08:21:32.234Z,101019.38
2023-02-18T08:23:59.599Z,101023.19
2023-02-18T08:26:26.474Z,101021.50
2023-02-18T08:28:52.939Z,101019.69
2023-02-18T08:31:25.451Z,101023.34
2023-02-18T08:33:53.627Z,101022.34
2023-02-18T08:36:20.538Z,101022.81
2023-02-18T08:38:47.314Z,101022.88
2023-02-18T08:41:18.652Z,101043.53
2023-02-18T08:43:45.996Z,101027.63
2023-02-18T08:46:16.065Z,101019.00
2023-02-18T08:48:44.164Z,101008.81
2023-02-18T08:51:21.643Z,100987.97
2023-02-18T08:53:50.010Z,101006.09
2023-02-18T08:56:17.206Z,100999.81
2023-02-18T08:58:44.177Z,100995.78
2023-02-18T09:01:12.449Z,100969.16
2023-02-18T09:03:39.360Z,100939.81
2023-02-18T09:06:06.693Z,100974.53
2023-02-18T09:08:33.299Z,100988.53
2023-02-18T09:11:01.968Z,100951.03
2023-02-18T09:13:28.587Z,100995.63
2023-02-18T09:16:04.619Z,100992.94
2023-02-18T09:18:32.470Z,101005.66
2023-02-18T09:21:00.352Z,100992.03
2023-02-18T09:23:31.510Z,101016.25
2023-02-18T09:25:58.218Z,101020.84
2023-02-18T09:28:25.531Z,101012.25
2023-02-18T09:30:52.576Z,101021.81
2023-02-18T09:33:19.529Z,100988.00
2023-02-18T09:35:46.801Z,101036.66
2023-02-18T09:38:15.936Z,101036.06
2023-02-18T09:40:46.039Z,101017.56
2023-02-18T09:43:34.293Z,101002.13
2023-02-18T09:46:02.364Z,101024.53
2023-02-18T09:48:32.156Z,100998.63
2023-02-18T09:50:59.072Z,101009.19
2023-02-18T09:53:26.170Z,100973.56
2023-02-18T09:55:54.967Z,101000.03
2023-02-18T09:58:24.866Z,101004.84
2023-02-18T10:00:56.393Z,101015.66
2023-02-18T10:03:25.654Z,101008.00
2023-02-18T10:06:01.521Z,101001.56
2023-02-18T10:08:30.465Z,101009.31
2023-02-18T10:10:57.313Z,101033.69
2023-02-18T10:13:27.723Z,100997.56
2023-02-18T10:15:54.319Z,101024.44
2023-02-18T10:21:06.738Z,101031.78
2023-02-18T10:23:36.838Z,101028.34
2023-02-18T10:26:06.994Z,100976.88
2023-02-18T10:28:34.966Z,101009.63
2023-02-18T10:31:08.477Z,101026.91
2023-02-18T10:33:40.396Z,101027.00
2023-02-18T10:36:24.745Z,100898.66
2023-02-18T10:39:32.660Z,101021.19
2023-02-18T10:42:10.307Z,101015.16
2023-02-18T10:44:51.872Z,101020.03
2023-02-18T10:47:33.568Z,101024.94
2023-02-18T10:50:03.318Z,101024.06
2023-02-18T10:52:31.118Z,101035.59
2023-02-18T10:54:57.525Z,101041.13
2023-02-18T10:57:24.879Z,101038.59
2023-02-18T11:00:02.137Z,101037.88
2023-02-18T11:02:32.561Z,101028.53
2023-02-18T11:05:01.824Z,101043.66
2023-02-18T11:07:34.044Z,101037.72
2023-02-18T11:10:07.584Z,101027.03
2023-02-18T11:12:40.807Z,101038.47
2023-02-18T11:15:20.691Z,100908.63
2023-02-18T11:17:49.587Z,101047.09
2023-02-18T11:20:35.525Z,101049.09
2023-02-18T11:23:08.267Z,101048.56
2023-02-18T11:25:37.267Z,101039.47
2023-02-18T11:28:27.271Z,101010.28
2023-02-18T11:30:56.688Z,101017.91
2023-02-18T11:33:38.141Z,101015.94
2023-02-18T11:36:21.636Z,101034.66
2023-02-18T11:38:51.726Z,101044.66
2023-02-18T11:41:28.859Z,101022.25
2023-02-18T11:43:55.390Z,101042.72
2023-02-18T11:46:24.306Z,101048.88
2023-02-18T11:48:51.662Z,101046.88
2023-02-18T11:51:28.400Z,101035.91
2023-02-18T11:54:03.537Z,101033.81
2023-02-18T11:56:35.714Z,101030.34
2023-02-18T11:59:03.715Z,101019.78
2023-02-18T12:01:40.621Z,101036.00
2023-02-18T12:04:24.428Z,101049.31
2023-02-18T12:07:15.691Z,101038.91
2023-02-18T12:09:46.114Z,101028.50
2023-02-18T12:12:27.472Z,101029.59
2023-02-18T12:14:57.488Z,101034.97
2023-02-18T12:17:46.191Z,101027.34
2023-02-18T12:20:31.586Z,101030.59
2023-02-18T12:23:10.607Z,101031.25
2023-02-18T12:25:59.651Z,101023.88
2023-02-18T12:28:57.802Z,101029.34
2023-02-18T12:31:59.941Z,101041.44
2023-02-18T12:34:53.457Z,101036.34
2023-02-18T12:37:44.342Z,101037.41
2023-02-18T12:40:44.836Z,101048.22
2023-02-18T12:43:14.272Z,101046.34
2023-02-18T12:46:17.133Z,101047.41
2023-02-18T12:48:49.788Z,101034.03
2023-02-18T12:51:19.440Z,101041.88
2023-02-18T12:54:13.740Z,101053.22
2023-02-18T12:56:43.101Z,101060.09
2023-02-18T12:59:23.752Z,101066.25
2023-02-18T13:02:19.691Z,101052.38
2023-02-18T13:04:57.125Z,101038.38
2023-02-18T13:07:32.097Z,101040.91
2023-02-18T13:10:06.128Z,101052.00
2023-02-18T13:12:55.839Z,101043.16
2023-02-18T13:15:33.839Z,101035.38
2023-02-18T13:18:02.020Z,101044.81
2023-02-18T13:20:51.573Z,101014.28
2023-02-18T13:23:34.578Z,101043.75
2023-02-18T13:26:03.770Z,101044.78
2023-02-18T13:29:04.374Z,101042.22
2023-02-18T13:32:10.670Z,101040.25
2023-02-18T13:34:49.096Z,101038.84
2023-02-18T13:37:21.580Z,101042.34
2023-02-18T13:39:51.839Z,101006.03
2023-02-18T13:42:18.820Z,101035.59
2023-02-18T13:44:48.412Z,101043.56
2023-02-18T13:47:45.187Z,101031.22
2023-02-18T13:50:25.590Z,101038.44
2023-02-18T13:53:07.610Z,101027.41
2023-02-18T13:56:09.604Z,101032.25
2023-02-18T13:58:41.137Z,101023.19
2023-02-18T14:01:11.050Z,101032.53
2023-02-18T14:03:43.461Z,101033.34
2023-02-18T14:06:22.982Z,101026.50
2023-02-18T14:08:50.057Z,101032.19
2023-02-18T14:11:16.543Z,101039.91
2023-02-18T14:13:44.416Z,101040.97
2023-02-18T14:16:11.773Z,101010.44
2023-02-18T14:18:41.336Z,101032.03
2023-02-18T14:21:14.019Z,101043.50
2023-02-18T14:24:00.822Z,101045.78
2023-02-18T14:26:36.560Z,101048.63
2023-02-18T14:29:08.047Z,101047.16
2023-02-18T14:31:39.977Z,101054.47
2023-02-18T14:34:46.106Z,101050.31
2023-02-18T14:37:20.668Z,101033.09
2023-02-18T14:40:06.590Z,101033.75
2023-02-18T14:43:07.164Z,101040.19
2023-02-18T14:45:52.487Z,101036.44
2023-02-18T14:48:40.205Z,101045.13
2023-02-18T14:51:07.100Z,101044.41
2023-02-18T14:53:41.278Z,101047.28
2023-02-18T14:56:09.558Z,101017.44
2023-02-18T14:58:38.253Z,101050.72
2023-02-18T15:01:16.180Z,101054.06
2023-02-18T15:03:42.862Z,101053.47
2023-02-18T15:06:27.857Z,101066.63
2023-02-18T15:08:54.428Z,101050.72
2023-02-18T15:11:23.620Z,101042.59
2023-02-18T15:13:50.490Z,101063.22
2023-02-18T15:16:32.794Z,101050.94
2023-02-18T15:19:01.976Z,101053.59
2023-02-18T15:21:30.378Z,101053.59
2023-02-18T15:24:19.014Z,101018.00
2023-02-18T15:26:50.317Z,101059.00
2023-02-18T15:29:25.784Z,101061.81
2023-02-18T15:31:57.724Z,101053.81
2023-02-18T15:34:29.550Z,101058.03
2023-02-18T15:36:57.273Z,101052.31
2023-02-18T15:39:24.292Z,101045.88
2023-02-18T15:42:03.118Z,101046.56
2023-02-18T15:44:32.610Z,101052.00
2023-02-18T15:47:01.542Z,101034.78
2023-02-18T15:49:28.474Z,101017.78
2023-02-18T15:51:58.646Z,101039.84
2023-02-18T15:54:25.365Z,101029.63
2023-02-18T15:56:57.508Z,101061.63
2023-02-18T15:59:30.547Z,101048.81
2023-02-18T16:02:09.032Z,101050.94
2023-02-18T16:04:41.358Z,101057.50
2023-02-18T16:07:38.471Z,101055.25
2023-02-18T16:10:33.232Z,101066.69
2023-02-18T16:13:00.496Z,101052.00
2023-02-18T16:15:33.053Z,101059.97
2023-02-18T16:18:02.751Z,100999.66
2023-02-18T16:20:29.588Z,101064.28
2023-02-18T16:23:03.873Z,101076.00
2023-02-18T16:25:46.102Z,101076.44
2023-02-18T16:28:30.557Z,101071.22
2023-02-18T16:30:57.007Z,101050.06
2023-02-18T16:33:23.475Z,101042.97
2023-02-18T16:35:52.643Z,101062.31
2023-02-18T16:38:21.887Z,101074.81
2023-02-18T16:40:48.946Z,101030.81
2023-02-18T16:43:16.351Z,101076.56
2023-02-18T16:45:50.481Z,101070.19
2023-02-18T16:48:26.616Z,101069.28
2023-02-18T16:50:53.344Z,101065.91
2023-02-18T16:53:20.364Z,101057.53
2023-02-18T16:55:47.028Z,101082.81
2023-02-18T16:58:13.835Z,101073.41
2023-02-18T17:00:40.417Z,101088.00
2023-02-18T17:03:07.094Z,101078.88
2023-02-18T17:05:40.388Z,101083.00
2023-02-18T17:08:24.856Z,101084.28
2023-02-18T17:10:56.110Z,101081.38
2023-02-18T17:13:24.912Z,101078.09
2023-02-18T17:15:53.246Z,101085.16
2023-02-18T17:18:20.326Z,101099.97
2023-02-18T17:20:51.048Z,101102.63
2023-02-18T17:23:21.154Z,101049.88
2023-02-18T17:25:51.030Z,101088.19
2023-02-18T17:28:20.070Z,101107.44
2023-02-18T17:30:49.839Z,101110.94
2023-02-18T17:33:18.326Z,101120.41
2023-02-18T17:35:45.570Z,101107.94
2023-02-18T17:38:21.133Z,101096.16
2023-02-18T17:40:50.060Z,101113.03
2023-02-18T17:43:17.654Z,101110.09
2023-02-18T17:45:49.173Z,101119.69
2023-02-18T17:48:15.823Z,101124.28
2023-02-18T17:50:42.665Z,101121.63
2023-02-18T17:53:11.587Z,101109.16
2023-02-18T17:55:42.646Z,101116.03
2023-02-18T17:58:10.042Z,101117.69
2023-02-18T18:00:39.781Z,101120.72
2023-02-18T18:03:08.617Z,101120.09
2023-02-18T18:05:37.883Z,101116.59
2023-02-18T18:08:05.739Z,101091.22
2023-02-18T18:10:34.927Z,101104.81
2023-02-18T18:13:04.684Z,101091.97
2023-02-18T18:15:42.433Z,101116.41
2023-02-18T18:18:10.870Z,101106.34
2023-02-18T18:20:40.417Z,101120.44
2023-02-18T18:23:07.568Z,101110.22
2023-02-18T18:25:37.836Z,101104.25
2023-02-18T18:28:05.966Z,101101.19
2023-02-18T18:30:35.526Z,101112.97
2023-02-18T18:33:03.048Z,101064.81
2023-02-18T18:35:32.420Z,101107.66
2023-02-18T18:38:00.918Z,101115.56
2023-02-18T18:40:34.714Z,101110.94
2023-02-18T18:43:02.073Z,101110.47
2023-02-18T18:45:31.366Z,101092.22
2023-02-18T18:47:58.461Z,101112.13
2023-02-18T18:50:26.156Z,101109.28
2023-02-18T18:52:57.171Z,101110.53
2023-02-18T18:55:35.541Z,101110.59
2023-02-18T18:58:02.826Z,101125.34
2023-02-18T19:00:35.377Z,101113.44
2023-02-18T19:03:04.100Z,101102.25
2023-02-18T19:05:39.213Z,101102.13
2023-02-18T19:08:07.155Z,101094.47
2023-02-18T19:10:36.132Z,101084.59
2023-02-18T19:13:05.959Z,101083.94
2023-02-18T19:15:32.595Z,101065.97
2023-02-18T19:17:59.373Z,101081.00
2023-02-18T19:20:29.516Z,101086.84
2023-02-18T19:22:56.228Z,101052.53
2023-02-18T19:25:23.348Z,101083.53
2023-02-18T19:27:50.534Z,101079.75
2023-02-18T19:30:22.964Z,101054.84
2023-02-18T19:32:50.785Z,101078.38
2023-02-18T19:35:17.790Z,101084.38
2023-02-18T19:37:46.650Z,101054.13
2023-02-18T19:40:18.462Z,101083.38
2023-02-18T19:42:45.340Z,101077.91
2023-02-18T19:45:12.476Z,101078.56
2023-02-18T19:47:39.303Z,101072.78
2023-02-18T19:50:07.215Z,101078.19
2023-02-18T19:52:33.947Z,101053.28
2023-02-18T19:55:00.680Z,101062.22
2023-02-18T19:57:30.022Z,101074.41
2023-02-18T19:59:56.532Z,101030.25
2023-02-18T20:02:25.619Z,101080.69
2023-02-18T20:04:52.446Z,101068.00
2023-02-18T20:07:21.171Z,101068.16
2023-02-18T20:09:53.999Z,101060.78
2023-02-18T20:12:20.892Z,101060.88
2023-02-18T20:14:49.880Z,101059.00
2023-02-18T20:17:17.048Z,101050.22
2023-02-18T20:19:48.190Z,101034.91
2023-02-18T20:22:14.723Z,101060.47
2023-02-18T20:24:43.063Z,101055.28
2023-02-18T20:27:11.017Z,101023.44
2023-02-18T20:29:37.774Z,100958.78
2023-02-18T20:32:05.590Z,101055.63
2023-02-18T20:34:32.949Z,101052.44
2023-02-18T20:37:00.355Z,101032.13
2023-02-18T20:39:27.157Z,101016.44
2023-02-18T20:41:57.880Z,101047.25
2023-02-18T20:44:27.090Z,101047.31
2023-02-18T20:46:54.009Z,101043.31
2023-02-18T20:49:21.706Z,101034.72
2023-02-18T20:51:48.728Z,101004.13
2023-02-18T20:54:19.538Z,101027.97
2023-02-18T20:56:50.039Z,101033.94
2023-02-18T20:59:23.519Z,101017.47
2023-02-18T21:01:50.103Z,101021.59
2023-02-18T21:04:20.364Z,101012.34
2023-02-18T21:06:48.192Z,101015.19
2023-02-18T21:09:15.566Z,101026.84
2023-02-18T21:11:44.750Z,101009.81
2023-02-18T21:14:11.325Z,100988.84
2023-02-18T21:16:40.985Z,100986.31
2023-02-18T21:19:11.412Z,101011.66
2023-02-18T21:21:43.893Z,101012.53
2023-02-18T21:24:11.462Z,101011.66
2023-02-18T21:26:38.309Z,100981.84
2023-02-18T21:29:07.066Z,101006.66
2023-02-18T21:31:41.368Z,100998.78
2023-02-18T21:34:11.344Z,101005.44
2023-02-18T21:36:37.921Z,100982.38
2023-02-18T21:39:07.698Z,100957.28
2023-02-18T21:41:35.414Z,100995.47
2023-02-18T21:44:04.837Z,100989.25
2023-02-18T21:46:33.292Z,100996.59
2023-02-18T21:49:05.552Z,100989.44
2023-02-18T21:52:08.181Z,100998.22
2023-02-18T21:54:36.951Z,100996.16
2023-02-18T21:57:04.874Z,100988.44
2023-02-18T21:59:33.847Z,100998.22
2023-02-18T22:02:01.264Z,100972.81
2023-02-18T22:04:31.902Z,101006.41
2023-02-18T22:06:58.879Z,100986.38
2023-02-18T22:09:25.923Z,100990.63
2023-02-18T22:11:52.501Z,101005.03
2023-02-18T22:14:18.945Z,100997.75
2023-02-18T22:16:45.645Z,100996.03
2023-02-18T22:19:15.497Z,100999.38
2023-02-18T22:21:43.619Z,101013.03
2023-02-18T22:24:12.436Z,100989.13
2023-02-18T22:26:39.028Z,100979.94
2023-02-18T22:29:05.812Z,100979.13
2023-02-18T22:31:32.976Z,100959.03
2023-02-18T22:34:00.454Z,100970.63
2023-02-18T22:36:28.202Z,100963.50
2023-02-18T22:38:55.241Z,100958.97
2023-02-18T22:41:25.120Z,100962.13
2023-02-18T22:43:56.116Z,100954.84
2023-02-18T22:46:23.013Z,100950.84
2023-02-18T22:48:49.822Z,100934.03
2023-02-18T22:51:25.044Z,100942.97
2023-02-18T22:53:52.832Z,100948.94
2023-02-18T22:56:20.261Z,100947.13
2023-02-18T22:58:52.813Z,100909.69
2023-02-18T23:01:29.990Z,100935.19
2023-02-18T23:03:58.770Z,100935.25
2023-02-18T23:06:25.776Z,100915.47
2023-02-18T23:08:54.085Z,100808.81
2023-02-18T23:11:21.176Z,100934.16
2023-02-18T23:14:08.948Z,100939.56
2023-02-18T23:16:57.261Z,100929.31
2023-02-18T23:19:26.079Z,100916.53
2023-02-18T23:21:53.404Z,100912.41
2023-02-18T23:24:20.608Z,100908.56
2023-02-18T23:26:47.698Z,100914.38
2023-02-18T23:29:14.566Z,100885.16
2023-02-18T23:31:41.200Z,100919.00
2023-02-18T23:34:08.520Z,100928.78
2023-02-18T23:36:35.778Z,100913.47
2023-02-18T23:39:05.922Z,100905.94
2023-02-18T23:41:32.409Z,100900.03
2023-02-18T23:43:59.112Z,100889.78
2023-02-18T23:46:26.428Z,100899.47
2023-02-18T23:48:52.988Z,100894.69
2023-02-18T23:51:21.960Z,100891.47
2023-02-18T23:53:48.521Z,100887.44
2023-02-18T23:56:16.814Z,100893.56
2023-02-18T23:58:52.378Z,100889.22
